Time;durP1;ratioP1;P1;durP2;ratioP2;P2;SDS_P1;SDS_P2;PMS_P1;PMS_P2;Temp;Humidity;BMP_temperature;BMP_pressure;BME280_temperature;BME280_humidity;BME280_pressure;Samples;Min_cycle;Max_cycle;Signal;HPM_P1;HPM_P2
2022/06/30 00:01:27;;;;;;;1999.90;999.90;;;15.80;99.90;;;;;;5034239;28;20442;-72
2022/06/30 00:03:52;;;;;;;1999.90;999.90;;;15.80;99.90;;;;;;5034852;28;20044;-78
2022/06/30 00:06:18;;;;;;;1999.90;999.90;;;15.80;99.90;;;;;;5035115;28;20041;-77
2022/06/30 00:08:44;;;;;;;1999.90;999.90;;;15.80;99.90;;;;;;5034622;28;20064;-77
2022/06/30 00:11:09;;;;;;;1999.90;999.90;;;15.80;99.90;;;;;;5023768;28;20117;-77
2022/06/30 00:13:39;;;;;;;1999.90;999.90;;;15.70;99.90;;;;;;5031433;28;20017;-72
2022/06/30 00:16:05;;;;;;;1999.90;999.90;;;15.70;99.90;;;;;;5034516;28;20495;-77
2022/06/30 00:18:32;;;;;;;1999.90;999.90;;;15.70;99.90;;;;;;5034515;28;20048;-77
2022/06/30 00:20:58;;;;;;;1999.90;999.90;;;15.60;99.90;;;;;;5034734;28;20021;-71
2022/06/30 00:23:24;;;;;;;1999.90;999.90;;;15.60;99.90;;;;;;5034484;28;20022;-77
2022/06/30 00:25:50;;;;;;;1999.90;999.90;;;15.60;99.90;;;;;;5035001;28;20022;-78
2022/06/30 00:28:19;;;;;;;1999.90;999.90;;;15.50;99.90;;;;;;5034194;28;20026;-78
2022/06/30 00:30:46;;;;;;;1999.90;999.90;;;15.50;99.90;;;;;;5034718;28;20076;-71
2022/06/30 00:33:12;;;;;;;1999.90;999.90;;;15.50;99.90;;;;;;5034140;28;20571;-77
2022/06/30 00:35:38;;;;;;;1999.90;999.90;;;15.50;99.90;;;;;;5034523;28;20112;-78
2022/06/30 00:38:04;;;;;;;1999.90;999.90;;;15.50;99.90;;;;;;5029543;28;20026;-71
2022/06/30 00:40:37;;;;;;;1999.90;999.90;;;15.50;99.90;;;;;;5014821;28;20026;-72
2022/06/30 00:43:04;;;;;;;1999.90;999.90;;;15.50;99.90;;;;;;5017642;28;20423;-72
2022/06/30 00:45:30;;;;;;;1999.90;999.90;;;15.50;99.90;;;;;;5020833;28;20091;-77
2022/06/30 00:47:55;;;;;;;1999.90;999.90;;;15.50;99.90;;;;;;5034349;28;20029;-72
2022/06/30 00:50:21;;;;;;;1999.90;999.90;;;15.50;99.90;;;;;;5034226;28;20044;-77
2022/06/30 00:52:50;;;;;;;1999.90;999.90;;;15.50;99.90;;;;;;5018697;28;20029;-77
2022/06/30 00:55:17;;;;;;;1999.90;999.90;;;15.50;99.90;;;;;;5014296;28;20037;-77
2022/06/30 00:57:44;;;;;;;1999.90;999.90;;;15.50;99.90;;;;;;5034272;28;20100;-77
2022/06/30 01:00:11;;;;;;;1999.90;999.90;;;15.50;99.90;;;;;;5031684;28;20388;-72
2022/06/30 01:02:36;;;;;;;1999.90;999.90;;;15.50;99.90;;;;;;5033779;28;20496;-77
2022/06/30 01:05:03;;;;;;;1999.90;999.90;;;15.50;99.90;;;;;;5034228;28;20037;-77
2022/06/30 01:07:30;;;;;;;1999.90;999.90;;;15.50;99.90;;;;;;5033368;28;20041;-77
2022/06/30 01:12:44;;;;;;;1999.90;999.90;;;15.60;99.90;;;;;;5021817;28;20415;-72
2022/06/30 01:15:18;;;;;;;1999.90;999.90;;;15.60;99.90;;;;;;5033547;28;20041;-78
2022/06/30 01:17:45;;;;;;;1999.90;999.90;;;15.50;99.90;;;;;;5033532;28;20026;-72
2022/06/30 01:20:12;;;;;;;1999.90;999.90;;;15.50;99.90;;;;;;5033525;28;20025;-77
2022/06/30 01:22:38;;;;;;;1999.90;999.90;;;15.60;99.90;;;;;;5033321;28;20021;-78
2022/06/30 01:25:05;;;;;;;1999.90;999.90;;;15.70;99.90;;;;;;5033426;28;20105;-78
2022/06/30 01:27:31;;;;;;;1999.90;999.90;;;15.60;99.90;;;;;;5033735;28;20021;-72
2022/06/30 01:29:58;;;;;;;1999.90;999.90;;;15.60;99.90;;;;;;5033637;28;20121;-77
2022/06/30 01:32:25;;;;;;;1999.90;999.90;;;15.60;99.90;;;;;;5033437;28;20033;-72
2022/06/30 01:34:51;;;;;;;1999.90;999.90;;;15.60;99.90;;;;;;5033185;28;20037;-78
2022/06/30 01:37:17;;;;;;;1999.90;999.90;;;15.60;99.90;;;;;;5033076;28;20064;-71
2022/06/30 01:39:42;;;;;;;1999.90;999.90;;;15.50;99.90;;;;;;5032204;28;20053;-72
2022/06/30 01:42:08;;;;;;;1999.90;999.90;;;15.40;99.90;;;;;;5033226;28;20025;-78
2022/06/30 01:44:34;;;;;;;1999.90;999.90;;;15.30;99.90;;;;;;5015809;28;20026;-71
2022/06/30 01:47:00;;;;;;;1999.90;999.90;;;15.20;99.90;;;;;;5032173;28;20076;-77
2022/06/30 01:49:25;;;;;;;1999.90;999.90;;;15.20;99.90;;;;;;5028767;28;20392;-71
2022/06/30 01:51:51;;;;;;;1999.90;999.90;;;15.20;99.90;;;;;;5024518;28;20443;-77
2022/06/30 01:54:17;;;;;;;1999.90;999.90;;;15.20;99.90;;;;;;5032411;28;20053;-77
2022/06/30 01:56:42;;;;;;;1999.90;999.90;;;15.20;99.90;;;;;;5013214;28;20022;-72
2022/06/30 01:59:08;;;;;;;1999.90;999.90;;;15.20;99.90;;;;;;5013834;28;20389;-72
2022/06/30 02:01:35;;;;;;;1999.90;999.90;;;15.20;99.90;;;;;;5033119;28;20025;-77
2022/06/30 02:06:46;;;;;;;1999.90;999.90;;;15.20;99.90;;;;;;5032637;28;20183;-77
2022/06/30 02:09:12;;;;;;;1999.90;999.90;;;15.20;99.90;;;;;;5016827;28;20124;-77
2022/06/30 02:11:37;;;;;;;1999.90;999.90;;;15.20;99.90;;;;;;5027662;28;20079;-72
2022/06/30 02:14:03;;;;;;;1999.90;999.90;;;15.20;99.90;;;;;;5032575;28;20511;-77
2022/06/30 02:16:30;;;;;;;1999.90;999.90;;;15.20;99.90;;;;;;5032530;28;20030;-77
2022/06/30 02:18:56;;;;;;;1999.90;999.90;;;15.20;99.90;;;;;;5032758;28;20102;-78
2022/06/30 02:21:21;;;;;;;1999.90;999.90;;;15.20;99.90;;;;;;5032455;28;20527;-71
2022/06/30 02:23:47;;;;;;;1999.90;999.90;;;15.20;99.90;;;;;;5032453;28;20029;-77
2022/06/30 02:26:12;;;;;;;1999.90;999.90;;;15.20;99.90;;;;;;5032965;28;20396;-77
2022/06/30 02:28:38;;;;;;;1999.90;999.90;;;15.30;99.90;;;;;;5032333;28;20037;-77
2022/06/30 02:31:04;;;;;;;1999.90;999.90;;;15.30;99.90;;;;;;5032667;28;20485;-78
2022/06/30 02:33:29;;;;;;;1999.90;999.90;;;15.30;99.90;;;;;;5032302;28;20037;-77
2022/06/30 02:35:55;;;;;;;1999.90;999.90;;;15.30;99.90;;;;;;5018442;28;20374;-72
2022/06/30 02:38:21;;;;;;;1999.90;999.90;;;15.40;99.90;;;;;;5019214;28;20065;-71
2022/06/30 02:40:46;;;;;;;1999.90;999.90;;;15.40;99.90;;;;;;5031415;28;20109;-77
2022/06/30 02:43:12;;;;;;;1999.90;999.90;;;15.30;99.90;;;;;;5014489;28;20029;-72
2022/06/30 02:45:38;;;;;;;1999.90;999.90;;;15.40;99.90;;;;;;5020298;28;20029;-77
2022/06/30 02:48:03;;;;;;;1999.90;999.90;;;15.40;99.90;;;;;;5032509;28;20100;-72
2022/06/30 02:50:29;;;;;;;1999.90;999.90;;;15.40;99.90;;;;;;5031521;28;20397;-71
2022/06/30 02:52:55;;;;;;;1999.90;999.90;;;15.50;99.90;;;;;;5032737;28;20390;-77
2022/06/30 02:55:21;;;;;;;1999.90;999.90;;;15.50;99.90;;;;;;5017310;28;20110;-77
2022/06/30 02:57:47;;;;;;;1999.90;999.90;;;15.40;99.90;;;;;;5036407;28;20074;-77
2022/06/30 03:00:13;;;;;;;1999.90;999.90;;;15.40;99.90;;;;;;5036176;28;20029;-77
2022/06/30 03:02:40;;;;;;;1999.90;999.90;;;15.30;99.90;;;;;;5036134;28;20056;-72
2022/06/30 03:05:07;;;;;;;1999.90;999.90;;;15.30;99.90;;;;;;5036414;28;20423;-77
2022/06/30 03:07:32;;;;;;;1999.90;999.90;;;15.20;99.90;;;;;;5035848;28;20049;-78
2022/06/30 03:09:58;;;;;;;1999.90;999.90;;;15.10;99.90;;;;;;5036188;28;20025;-78
2022/06/30 03:12:24;;;;;;;1999.90;999.90;;;15.10;99.90;;;;;;5035630;28;20104;-78
2022/06/30 03:14:50;;;;;;;1999.90;999.90;;;15.10;99.90;;;;;;5036299;28;20033;-71
2022/06/30 03:17:16;;;;;;;1999.90;999.90;;;15.20;99.90;;;;;;5035647;28;20038;-78
2022/06/30 03:19:42;;;;;;;1999.90;999.90;;;15.20;99.90;;;;;;5036112;28;20066;-72
2022/06/30 03:22:07;;;;;;;1999.90;999.90;;;15.20;99.90;;;;;;5035340;28;20161;-78
2022/06/30 03:24:33;;;;;;;1999.90;999.90;;;15.20;99.90;;;;;;5035709;28;20552;-77
2022/06/30 03:26:59;;;;;;;1999.90;999.90;;;15.10;99.90;;;;;;5036137;28;20104;-77
2022/06/30 03:29:24;;;;;;;1999.90;999.90;;;15.10;99.90;;;;;;5035964;28;20400;-77
2022/06/30 03:31:50;;;;;;;1999.90;999.90;;;15.10;99.90;;;;;;5035357;28;20022;-77
2022/06/30 03:34:16;;;;;;;1999.90;999.90;;;15.10;99.90;;;;;;5035478;28;20084;-72
2022/06/30 03:36:41;;;;;;;1999.90;999.90;;;15.00;99.90;;;;;;5035144;28;20037;-78
2022/06/30 03:39:07;;;;;;;1999.90;999.90;;;14.90;99.90;;;;;;5030738;28;20104;-71
2022/06/30 03:41:33;;;;;;;1999.90;999.90;;;14.90;99.90;;;;;;5035141;28;20025;-77
2022/06/30 03:43:59;;;;;;;1999.90;999.90;;;14.80;99.90;;;;;;5023430;28;20068;-76
2022/06/30 03:46:24;;;;;;;1999.90;999.90;;;14.70;99.90;;;;;;5029663;28;20088;-76
2022/06/30 03:48:50;;;;;;;1999.90;999.90;;;14.70;99.90;;;;;;5035237;28;20025;-76
2022/06/30 03:51:16;;;;;;;1999.90;999.90;;;14.60;99.90;;;;;;5033537;28;20038;-76
2022/06/30 03:53:42;;;;;;;1999.90;999.90;;;14.50;99.90;;;;;;5035261;28;20037;-76
2022/06/30 03:56:07;;;;;;;1999.90;999.90;;;14.50;99.90;;;;;;5028144;28;20476;-76
2022/06/30 03:58:34;;;;;;;1999.90;999.90;;;14.50;99.90;;;;;;5015452;28;20026;-77
2022/06/30 04:00:59;;;;;;;1999.90;999.90;;;14.40;99.90;;;;;;5031395;28;20033;-77
2022/06/30 04:03:25;;;;;;;1999.90;999.90;;;14.40;99.90;;;;;;5034522;28;20164;-77
2022/06/30 04:05:51;;;;;;;1999.90;999.90;;;14.30;99.90;;;;;;5035447;28;20037;-71
2022/06/30 04:08:17;;;;;;;1999.90;999.90;;;14.30;99.90;;;;;;5034970;28;20033;-72
2022/06/30 04:10:43;;;;;;;1999.90;999.90;;;14.30;99.90;;;;;;5027732;28;20057;-76
2022/06/30 04:13:08;;;;;;;1999.90;999.90;;;14.30;99.90;;;;;;5026759;28;20044;-77
2022/06/30 04:15:34;;;;;;;1999.90;999.90;;;14.30;99.90;;;;;;5034888;28;20484;-78
2022/06/30 04:18:00;;;;;;;1999.90;999.90;;;14.20;99.90;;;;;;5034706;28;20040;-72
2022/06/30 04:20:26;;;;;;;1999.90;999.90;;;14.20;99.90;;;;;;5034764;28;20028;-72
2022/06/30 04:22:53;;;;;;;1999.90;999.90;;;14.20;99.90;;;;;;5034166;28;20036;-72
2022/06/30 04:25:19;;;;;;;1999.90;999.90;;;14.20;99.90;;;;;;5035060;28;20079;-73
2022/06/30 04:27:48;;;;;;;1999.90;999.90;;;14.20;99.90;;;;;;5034805;28;20033;-77
2022/06/30 04:30:14;;;;;;;1999.90;999.90;;;14.10;99.90;;;;;;5034786;28;20064;-76
2022/06/30 04:32:41;;;;;;;1999.90;999.90;;;14.00;99.90;;;;;;5034161;28;20481;-71
2022/06/30 04:35:11;;;;;;;1999.90;999.90;;;14.00;99.90;;;;;;5034632;28;20030;-71
2022/06/30 04:37:38;;;;;;;1999.90;999.90;;;14.00;99.90;;;;;;5032992;28;20476;-76
2022/06/30 04:42:48;;;;;;;1999.90;999.90;;;14.10;99.90;;;;;;5031178;28;20121;-76
2022/06/30 04:45:14;;;;;;;1999.90;999.90;;;14.10;99.90;;;;;;5019840;28;20100;-71
2022/06/30 04:47:40;;;;;;;1999.90;999.90;;;14.10;99.90;;;;;;5033527;28;20037;-71
2022/06/30 04:50:06;;;;;;;1999.90;999.90;;;14.20;99.90;;;;;;5034547;28;20025;-71
2022/06/30 04:52:33;;;;;;;1999.90;999.90;;;14.20;99.90;;;;;;5033713;28;20083;-72
2022/06/30 04:54:58;;;;;;;1999.90;999.90;;;14.20;99.90;;;;;;5034069;28;20025;-76
2022/06/30 04:57:24;;;;;;;1999.90;999.90;;;14.20;99.90;;;;;;5016608;28;20040;-71
2022/06/30 04:59:50;;;;;;;1999.90;999.90;;;14.20;99.90;;;;;;5020789;28;20075;-71
2022/06/30 05:02:16;;;;;;;1999.90;999.90;;;14.20;99.90;;;;;;5033995;28;20044;-71
2022/06/30 05:04:44;;;;;;;1999.90;999.90;;;14.20;99.90;;;;;;5034142;28;20061;-77
2022/06/30 05:07:10;;;;;;;1999.90;999.90;;;14.30;99.90;;;;;;5033502;28;20120;-72
2022/06/30 05:09:36;;;;;;;1999.90;999.90;;;14.20;99.90;;;;;;5033896;28;20029;-77
2022/06/30 05:12:03;;;;;;;1999.90;999.90;;;14.20;99.90;;;;;;5030685;28;20033;-72
2022/06/30 05:14:29;;;;;;;1999.90;999.90;;;14.20;99.90;;;;;;5013273;28;20062;-72
2022/06/30 05:16:55;;;;;;;1999.90;999.90;;;14.20;99.90;;;;;;5013692;28;20046;-77
2022/06/30 05:19:20;;;;;;;1999.90;999.90;;;14.10;99.90;;;;;;5014053;28;20034;-77
2022/06/30 05:21:46;;;;;;;1999.90;999.90;;;14.10;99.90;;;;;;5013388;28;20049;-71
2022/06/30 05:26:55;;;;;;;1999.90;999.90;;;14.20;99.90;;;;;;5030715;28;20399;-71
2022/06/30 05:29:21;;;;;;;1999.90;999.90;;;14.20;99.90;;;;;;5033599;28;20030;-77
2022/06/30 05:31:47;;;;;;;1999.90;999.90;;;14.20;99.90;;;;;;5033838;28;20459;-76
2022/06/30 05:34:12;;;;;;;1999.90;999.90;;;14.30;99.90;;;;;;5033085;28;20488;-76
2022/06/30 05:36:38;;;;;;;1999.90;999.90;;;14.30;99.90;;;;;;5026092;28;20033;-74
2022/06/30 05:39:04;;;;;;;1999.90;999.90;;;14.30;99.90;;;;;;5030413;28;20116;-69
2022/06/30 05:41:29;;;;;;;1999.90;999.90;;;14.40;99.90;;;;;;5032868;28;20100;-75
2022/06/30 05:43:55;;;;;;;1999.90;999.90;;;14.40;99.90;;;;;;5021699;28;20026;-70
2022/06/30 05:46:20;;;;;;;1999.90;999.90;;;14.40;99.90;;;;;;5026086;28;20040;-75
2022/06/30 05:48:46;;;;;;;1999.90;999.90;;;14.40;99.90;;;;;;5009670;28;20034;-75
2022/06/30 05:51:12;;;;;;;1999.90;999.90;;;14.40;99.90;;;;;;5031644;28;20389;-75
2022/06/30 05:53:38;;;;;;;1999.90;999.90;;;14.40;99.90;;;;;;5032769;28;20125;-75
2022/06/30 05:56:04;;;;;;;1999.90;999.90;;;14.40;99.90;;;;;;5026569;28;20030;-75
2022/06/30 05:58:29;;;;;;;1999.90;999.90;;;14.40;99.90;;;;;;5013026;28;20069;-70
2022/06/30 06:00:55;;;;;;;1999.90;999.90;;;14.40;99.90;;;;;;5026306;28;20045;-75
2022/06/30 06:03:21;;;;;;;1999.90;999.90;;;14.40;99.90;;;;;;5029938;28;20117;-70
2022/06/30 06:05:46;;;;;;;1999.90;999.90;;;14.40;99.90;;;;;;5033033;28;20033;-70
2022/06/30 06:08:12;;;;;;;1999.90;999.90;;;14.50;99.90;;;;;;5032648;28;20077;-75
2022/06/30 06:10:38;;;;;;;1999.90;999.90;;;14.50;99.90;;;;;;5028129;28;20033;-75
2022/06/30 06:13:05;;;;;;;1999.90;999.90;;;14.50;99.90;;;;;;5031276;28;20055;-75
2022/06/30 06:15:31;;;;;;;1999.90;999.90;;;14.50;99.90;;;;;;5031939;28;20074;-70
2022/06/30 06:17:56;;;;;;;1999.90;999.90;;;14.60;99.90;;;;;;5031677;28;20522;-70
2022/06/30 06:20:22;;;;;;;1999.90;999.90;;;14.70;99.90;;;;;;5027081;28;20026;-76
2022/06/30 06:22:48;;;;;;;1999.90;999.90;;;14.80;99.90;;;;;;5027036;28;20029;-76
2022/06/30 06:25:15;;;;;;;1999.90;999.90;;;14.80;99.90;;;;;;5016772;28;20021;-76
2022/06/30 06:27:41;;;;;;;1999.90;999.90;;;14.80;99.90;;;;;;5012410;28;20030;-77
2022/06/30 06:30:09;;;;;;;1999.90;999.90;;;14.80;99.90;;;;;;5027911;28;20040;-71
2022/06/30 06:32:35;;;;;;;1999.90;999.90;;;14.90;99.90;;;;;;5039473;28;20113;-77
2022/06/30 06:35:00;;;;;;;1999.90;999.90;;;15.00;99.90;;;;;;5032237;28;20100;-76
2022/06/30 06:37:26;;;;;;;1999.90;999.90;;;15.10;99.90;;;;;;5030916;28;20033;-76
2022/06/30 06:39:52;;;;;;;1999.90;999.90;;;15.10;99.90;;;;;;5030656;28;20037;-76
2022/06/30 06:42:18;;;;;;;1999.90;999.90;;;15.20;99.90;;;;;;5027056;28;20392;-71
2022/06/30 06:44:44;;;;;;;1999.90;999.90;;;15.20;99.90;;;;;;5031836;28;20085;-71
2022/06/30 06:47:09;;;;;;;1999.90;999.90;;;15.10;99.90;;;;;;5023869;28;20032;-76
2022/06/30 06:49:35;;;;;;;1999.90;999.90;;;15.10;99.90;;;;;;5020786;28;20033;-76
2022/06/30 06:52:01;;;;;;;1999.90;999.90;;;15.00;99.90;;;;;;5021845;28;20524;-71
2022/06/30 06:54:27;;;;;;;1999.90;999.90;;;15.00;99.90;;;;;;5032123;28;20392;-71
2022/06/30 06:56:52;;;;;;;1999.90;999.90;;;15.10;99.90;;;;;;5024216;28;20404;-75
2022/06/30 06:59:18;;;;;;;1999.90;999.90;;;15.10;99.90;;;;;;5023396;28;20075;-77
2022/06/30 07:01:44;;;;;;;1999.90;999.90;;;15.20;99.90;;;;;;5026623;28;20018;-77
2022/06/30 07:04:09;;;;;;;1999.90;999.90;;;15.20;99.90;;;;;;5023379;28;20540;-71
2022/06/30 07:06:35;;;;;;;1999.90;999.90;;;15.20;99.90;;;;;;5023663;28;20176;-77
2022/06/30 07:09:02;;;;;;;1999.90;999.90;;;15.30;99.90;;;;;;5016452;28;20064;-72
2022/06/30 07:11:28;;;;;;;1999.90;999.90;;;15.40;99.90;;;;;;5016812;28;20038;-71
2022/06/30 07:13:53;;;;;;;1999.90;999.90;;;15.40;99.90;;;;;;5024807;28;20557;-71
2022/06/30 07:16:19;;;;;;;1999.90;999.90;;;15.50;99.90;;;;;;5028019;28;20076;-77
2022/06/30 07:18:45;;;;;;;1999.90;999.90;;;15.40;99.90;;;;;;5021936;28;20021;-77
2022/06/30 07:21:11;;;;;;;1999.90;999.90;;;15.30;99.90;;;;;;5012168;28;20164;-77
2022/06/30 07:23:36;;;;;;;1999.90;999.90;;;15.30;99.90;;;;;;5020520;28;20032;-71
2022/06/30 07:26:02;;;;;;;1999.90;999.90;;;15.40;99.90;;;;;;5023972;28;20033;-77
2022/06/30 07:28:28;;;;;;;1999.90;999.90;;;15.30;99.90;;;;;;5026705;28;20115;-76
2022/06/30 07:30:54;;;;;;;1999.90;999.90;;;15.30;99.90;;;;;;5020514;28;20069;-76
2022/06/30 07:33:19;;;;;;;1999.90;999.90;;;15.40;99.90;;;;;;5024594;28;20109;-70
2022/06/30 07:35:46;;;;;;;1999.90;999.90;;;15.40;99.90;;;;;;5024678;28;20037;-76
2022/06/30 07:38:11;;;;;;;1999.90;999.90;;;15.40;99.90;;;;;;5028938;28;20025;-71
2022/06/30 07:40:37;;;;;;;1999.90;999.90;;;15.60;99.90;;;;;;5029542;28;20032;-76
2022/06/30 07:43:03;;;;;;;1999.90;999.90;;;15.70;99.90;;;;;;5027678;28;20108;-76
2022/06/30 07:45:29;;;;;;;1999.90;999.90;;;15.80;99.90;;;;;;5017701;28;20026;-76
2022/06/30 07:47:55;;;;;;;1999.90;999.90;;;15.90;99.90;;;;;;5021377;28;20472;-71
2022/06/30 07:50:21;;;;;;;1999.90;999.90;;;16.00;99.90;;;;;;5023815;28;20112;-71
2022/06/30 07:52:48;;;;;;;1999.90;999.90;;;16.10;99.90;;;;;;5031780;28;20033;-76
2022/06/30 07:55:14;;;;;;;1999.90;999.90;;;16.30;99.90;;;;;;5030981;28;20087;-76
2022/06/30 07:57:42;;;;;;;1999.90;999.90;;;17.10;99.90;;;;;;5027726;28;20083;-76
2022/06/30 08:00:10;;;;;;;1999.90;999.90;;;17.20;99.90;;;;;;5033672;28;20033;-71
2022/06/30 08:02:36;;;;;;;1999.90;999.90;;;17.40;99.90;;;;;;5033303;28;20108;-76
2022/06/30 08:05:02;;;;;;;1999.90;999.90;;;18.90;99.90;;;;;;5024815;28;20050;-76
2022/06/30 08:07:28;;;;;;;1999.90;999.90;;;20.90;99.90;;;;;;5025559;28;20089;-79
2022/06/30 08:09:54;;;;;;;1999.90;999.90;;;22.60;99.90;;;;;;5027358;28;20520;-77
2022/06/30 08:12:19;;;;;;;1999.90;999.90;;;23.20;99.90;;;;;;5029563;28;20038;-72
2022/06/30 08:14:46;;;;;;;1999.90;999.90;;;23.00;99.90;;;;;;5033412;28;20026;-72
2022/06/30 08:17:12;;;;;;;1999.90;999.90;;;23.80;99.90;;;;;;5029062;28;20038;-77
2022/06/30 08:19:38;;;;;;;1999.90;999.90;;;23.70;99.90;;;;;;5025529;28;20036;-77
2022/06/30 08:22:06;;;;;;;1999.90;999.90;;;22.20;99.90;;;;;;5028033;28;20025;-77
2022/06/30 08:24:32;;;;;;;1999.90;999.90;;;22.70;99.90;;;;;;5026957;28;20034;-77
2022/06/30 08:27:02;;;;;;;1999.90;999.90;;;23.80;99.90;;;;;;5022831;28;20040;-78
2022/06/30 08:29:34;;;;;;;1999.90;999.90;;;21.80;99.90;;;;;;5033573;28;20113;-72
2022/06/30 08:32:04;;;;;;;1999.90;999.90;;;19.80;99.90;;;;;;5034123;28;20025;-77
2022/06/30 08:34:29;;;;;;;1999.90;999.90;;;18.50;99.90;;;;;;5026898;28;20038;-77
2022/06/30 08:36:56;;;;;;;1999.90;999.90;;;17.90;99.90;;;;;;5029109;28;20040;-76
2022/06/30 08:42:08;;;;;;;1999.90;999.90;;;20.10;99.90;;;;;;5032879;28;20041;-76
2022/06/30 08:44:36;;;;;;;1999.90;999.90;;;20.40;99.90;;;;;;5028742;28;20101;-77
2022/06/30 08:47:03;;;;;;;1999.90;999.90;;;21.10;99.90;;;;;;5024299;28;20531;-77
2022/06/30 08:49:30;;;;;;;1999.90;999.90;;;23.20;99.90;;;;;;5029122;28;20108;-76
2022/06/30 08:51:57;;;;;;;1999.90;999.90;;;22.50;99.90;;;;;;5028994;28;20044;-71
2022/06/30 08:54:25;;;;;;;1999.90;999.90;;;21.40;99.90;;;;;;5028711;28;20033;-76
2022/06/30 08:56:52;;;;;;;1999.90;999.90;;;21.10;99.90;;;;;;5022756;28;20026;-76
2022/06/30 08:59:19;;;;;;;1999.90;999.90;;;20.10;99.90;;;;;;5022391;28;20033;-76
2022/06/30 09:01:45;;;;;;;1999.90;999.90;;;19.30;99.90;;;;;;5026384;28;20033;-76
2022/06/30 09:04:11;;;;;;;1999.90;999.90;;;17.90;99.90;;;;;;5029757;28;20491;-76
2022/06/30 09:06:37;;;;;;;1999.90;999.90;;;17.20;99.90;;;;;;5021320;28;20041;-77
2022/06/30 09:09:04;;;;;;;1999.90;999.90;;;16.50;99.90;;;;;;5027575;28;20484;-70
2022/06/30 09:11:56;;;;;;;1999.90;999.90;;;16.20;99.90;;;;;;5027808;28;20095;-77
2022/06/30 09:14:35;;;;;;;1999.90;999.90;;;16.10;99.90;;;;;;5025443;28;20104;-77
2022/06/30 09:17:02;;;;;;;1999.90;999.90;;;16.20;99.90;;;;;;5027065;28;20048;-71
2022/06/30 09:19:29;;;;;;;1999.90;999.90;;;16.10;99.90;;;;;;5031902;28;20033;-71
2022/06/30 09:22:15;;;;;;;1999.90;999.90;;;16.20;99.90;;;;;;5021157;28;20413;-77
2022/06/30 09:24:40;;;;;;;1999.90;999.90;;;16.40;99.90;;;;;;5024272;28;20112;-71
2022/06/30 09:27:10;;;;;;;1999.90;999.90;;;16.70;99.90;;;;;;5027898;28;20109;-77
2022/06/30 09:29:49;;;;;;;1999.90;999.90;;;17.00;99.90;;;;;;5024447;28;20060;-71
2022/06/30 09:32:16;;;;;;;1999.90;999.90;;;17.00;99.90;;;;;;5031415;28;20065;-71
2022/06/30 09:34:42;;;;;;;1999.90;999.90;;;17.10;99.90;;;;;;5029011;28;21137;-76
2022/06/30 09:37:16;;;;;;;1999.90;999.90;;;17.10;99.90;;;;;;5028547;28;20037;-77
2022/06/30 09:39:43;;;;;;;1999.90;999.90;;;18.10;99.90;;;;;;5023668;28;20064;-72
2022/06/30 09:42:09;;;;;;;1999.90;999.90;;;18.60;99.90;;;;;;5027881;28;20025;-77
2022/06/30 09:44:35;;;;;;;1999.90;999.90;;;20.60;99.90;;;;;;5025476;28;20495;-77
2022/06/30 09:47:10;;;;;;;1999.90;999.90;;;23.40;99.90;;;;;;5026380;28;20026;-76
2022/06/30 09:49:37;;;;;;;1999.90;999.90;;;23.80;99.70;;;;;;5025688;28;20123;-76
2022/06/30 09:52:13;;;;;;;1999.90;999.90;;;24.60;99.90;;;;;;5028815;28;20083;-75
2022/06/30 09:54:40;;;;;;;1999.90;999.90;;;25.10;98.50;;;;;;5026867;28;20029;-77
2022/06/30 09:57:07;;;;;;;1999.90;999.90;;;25.80;97.50;;;;;;5017932;28;20037;-73
2022/06/30 09:59:34;;;;;;;1999.90;999.90;;;26.00;96.10;;;;;;5027111;28;20469;-72
2022/06/30 10:02:00;;;;;;;1999.90;999.90;;;25.60;94.90;;;;;;5025993;28;20500;-78
2022/06/30 10:04:26;;;;;;;1999.90;999.90;;;24.90;96.20;;;;;;5025533;28;20030;-78
2022/06/30 10:06:53;;;;;;;1999.90;999.90;;;23.10;98.60;;;;;;5025379;28;20058;-77
2022/06/30 10:09:19;;;;;;;1999.90;999.90;;;22.60;99.90;;;;;;5023733;28;20033;-72
2022/06/30 10:11:46;;;;;;;1999.90;999.90;;;22.40;99.20;;;;;;5030413;28;20501;-72
2022/06/30 10:14:15;;;;;;;1999.90;999.90;;;22.80;99.10;;;;;;5030855;28;20124;-78
2022/06/30 10:16:42;;;;;;;1999.90;999.90;;;23.40;98.20;;;;;;5028648;28;20034;-78
2022/06/30 10:19:12;;;;;;;1999.90;999.90;;;22.40;98.60;;;;;;5026615;28;20025;-78
2022/06/30 10:21:39;;;;;;;1999.90;999.90;;;22.70;99.20;;;;;;5027704;28;20515;-77
2022/06/30 10:24:06;;;;;;;1999.90;999.90;;;23.60;97.40;;;;;;5027690;28;20136;-72
2022/06/30 10:29:18;;;;;;;1999.90;999.90;;;26.40;93.90;;;;;;5016354;28;20056;-73
2022/06/30 10:32:06;;;;;;;1999.90;999.90;;;26.80;92.90;;;;;;5021556;28;20034;-78
2022/06/30 10:34:59;;;;;;;1999.90;999.90;;;26.40;92.50;;;;;;5030467;28;20451;-72
2022/06/30 10:37:28;;;;;;;1999.90;999.90;;;26.90;93.40;;;;;;5029544;28;20033;-72
2022/06/30 10:40:06;;;;;;;1999.90;999.90;;;27.50;94.40;;;;;;5028820;28;20018;-78
2022/06/30 10:42:50;;;;;;;1999.90;999.90;;;27.90;92.40;;;;;;5031787;28;20120;-78
2022/06/30 10:45:31;;;;;;;1999.90;999.90;;;26.00;92.80;;;;;;5025559;28;20465;-71
2022/06/30 10:48:01;;;;;;;1999.90;999.90;;;24.30;95.20;;;;;;5027111;28;20091;-79
2022/06/30 10:50:39;;;;;;;1999.90;999.90;;;24.60;96.40;;;;;;5033968;28;20033;-78
2022/06/30 10:53:09;;;;;;;1999.90;999.90;;;25.30;94.60;;;;;;5029693;28;20029;-78
2022/06/30 10:55:50;;;;;;;1999.90;999.90;;;25.20;94.60;;;;;;5028837;28;20025;-78
2022/06/30 10:58:16;;;;;;;1999.90;999.90;;;21.90;96.60;;;;;;5030756;28;20029;-78
2022/06/30 11:00:43;;;;;;;1999.90;999.90;;;20.60;98.00;;;;;;5028423;28;20080;-71
2022/06/30 11:03:09;;;;;;;1999.90;999.90;;;22.40;97.40;;;;;;5025844;28;20022;-72
2022/06/30 11:05:50;;;;;;;1999.90;999.90;;;22.80;96.50;;;;;;5029292;28;20365;-72
2022/06/30 11:11:22;;;;;;;1999.90;999.90;;;23.40;95.30;;;;;;5022027;28;20068;-78
2022/06/30 11:14:02;;;;;;;1999.90;999.90;;;21.70;97.20;;;;;;5017698;28;20037;-74
2022/06/30 11:16:33;;;;;;;1999.90;999.90;;;22.40;97.60;;;;;;5017059;28;20041;-72
2022/06/30 11:18:59;;;;;;;1999.90;999.90;;;23.40;96.10;;;;;;5025013;28;20349;-77
2022/06/30 11:21:24;;;;;;;1999.90;999.90;;;22.30;95.40;;;;;;5024814;28;20504;-78
2022/06/30 11:23:51;;;;;;;1999.90;999.90;;;21.00;97.90;;;;;;5026390;28;20040;-77
2022/06/30 11:29:05;;;;;;;1999.90;999.90;;;20.30;97.50;;;;;;5027009;28;20082;-71
2022/06/30 11:31:35;;;;;;;1999.90;999.90;;;21.20;97.90;;;;;;5027529;28;20037;-78
2022/06/30 11:34:10;;;;;;;1999.90;999.90;;;23.80;94.40;;;;;;5029733;28;20507;-78
2022/06/30 11:36:39;;;;;;;1999.90;999.90;;;24.90;94.50;;;;;;5024086;28;20783;-78
2022/06/30 11:39:07;;;;;;;1999.90;999.90;;;24.60;94.30;;;;;;5018643;28;20549;-79
2022/06/30 11:44:31;;;;;;;1999.90;999.90;;;22.30;93.80;;;;;;5027630;28;20044;-79
2022/06/30 11:46:58;;;;;;;1999.90;999.90;;;21.10;96.60;;;;;;5029062;28;20018;-77
2022/06/30 11:49:53;;;;;;;1999.90;999.90;;;21.60;96.00;;;;;;5024848;28;20029;-78
2022/06/30 11:52:28;;;;;;;1999.90;999.90;;;22.10;95.10;;;;;;5017066;28;20034;-79
2022/06/30 11:55:03;;;;;;;1999.90;999.90;;;21.30;97.10;;;;;;5028627;28;20461;-79
2022/06/30 11:57:34;;;;;;;1999.90;999.90;;;21.00;97.90;;;;;;5027954;28;20038;-80
2022/06/30 12:00:04;;;;;;;1999.90;999.90;;;22.60;96.00;;;;;;5024739;28;20111;-79
2022/06/30 12:02:32;;;;;;;1999.90;999.90;;;23.50;93.50;;;;;;5032079;28;20021;-78
2022/06/30 12:05:01;;;;;;;1999.90;999.90;;;23.90;93.20;;;;;;5026825;28;20022;-79
2022/06/30 12:07:28;;;;;;;1999.90;999.90;;;23.30;93.70;;;;;;5031279;28;20063;-73
2022/06/30 12:09:55;;;;;;;1999.90;999.90;;;22.60;95.40;;;;;;5022066;28;20034;-74
2022/06/30 12:12:27;;;;;;;1999.90;999.90;;;22.30;96.40;;;;;;5025000;28;20018;-81
2022/06/30 12:14:59;;;;;;;1999.90;999.90;;;22.40;94.10;;;;;;5028503;28;20044;-80
2022/06/30 12:17:29;;;;;;;1999.90;999.90;;;23.10;94.10;;;;;;5025401;28;20029;-84
2022/06/30 12:19:55;;;;;;;1999.90;999.90;;;23.00;94.10;;;;;;5031363;28;20033;-75
2022/06/30 12:22:21;;;;;;;1999.90;999.90;;;23.00;93.90;;;;;;5024810;28;20032;-82
2022/06/30 12:24:48;;;;;;;1999.90;999.90;;;22.90;93.50;;;;;;5026698;28;20048;-84